Time;durP1;ratioP1;P1;durP2;ratioP2;P2;SDS_P1;SDS_P2;PMS_P1;PMS_P2;Temp;Humidity;BMP_temperature;BMP_pressure;BME280_temperature;BME280_humidity;BME280_pressure;Samples;Min_cycle;Max_cycle;Signal;HPM_P1;HPM_P2
2021/04/20 00:01:17;;;;;;;21.85;13.30;;;9.70;69.30;;;;;;5074481;28;20355;-85
2021/04/20 00:03:43;;;;;;;18.02;12.60;;;9.60;69.50;;;;;;5074316;28;20028;-85
2021/04/20 00:06:09;;;;;;;22.35;13.65;;;9.60;69.60;;;;;;5074061;28;20044;-84
2021/04/20 00:08:38;;;;;;;21.08;12.90;;;9.50;69.70;;;;;;5074244;28;20029;-84
2021/04/20 00:11:04;;;;;;;21.17;13.57;;;9.50;69.90;;;;;;5073796;28;20077;-85
2021/04/20 00:13:31;;;;;;;18.50;12.73;;;9.40;70.00;;;;;;5074325;28;20029;-85
2021/04/20 00:15:56;;;;;;;25.85;13.77;;;9.40;70.20;;;;;;5074049;28;20029;-81
2021/04/20 00:18:22;;;;;;;22.05;13.68;;;9.30;70.30;;;;;;5072896;28;20028;-85
2021/04/20 00:20:48;;;;;;;20.27;13.35;;;9.30;70.60;;;;;;5073979;28;20049;-85
2021/04/20 00:23:13;;;;;;;21.90;14.05;;;9.20;70.70;;;;;;5073651;28;20089;-85
2021/04/20 00:25:39;;;;;;;25.08;15.07;;;9.20;70.90;;;;;;5073878;28;20028;-85
2021/04/20 00:28:05;;;;;;;26.15;15.70;;;9.20;71.10;;;;;;5072461;28;20048;-84
2021/04/20 00:30:31;;;;;;;23.33;14.07;;;9.20;71.20;;;;;;5073966;28;20028;-85
2021/04/20 00:32:57;;;;;;;26.17;13.60;;;9.20;71.40;;;;;;5073827;28;20021;-85
2021/04/20 00:35:23;;;;;;;23.45;14.27;;;9.20;71.60;;;;;;5073779;28;20024;-84
2021/04/20 00:37:49;;;;;;;24.60;14.35;;;9.10;71.70;;;;;;5073284;28;20025;-84
2021/04/20 00:40:17;;;;;;;19.10;13.07;;;9.10;71.90;;;;;;5073252;28;20028;-85
2021/04/20 00:42:49;;;;;;;23.50;13.52;;;9.10;72.20;;;;;;5073518;28;20021;-84
2021/04/20 00:45:17;;;;;;;24.48;13.82;;;9.10;72.40;;;;;;5073338;28;20165;-85
2021/04/20 00:47:43;;;;;;;24.23;13.40;;;9.10;72.50;;;;;;5073670;28;20045;-85
2021/04/20 00:50:12;;;;;;;24.65;14.13;;;9.00;72.60;;;;;;5073556;28;20032;-84
2021/04/20 00:52:38;;;;;;;22.20;13.85;;;9.00;72.80;;;;;;5073725;28;20025;-84
2021/04/20 00:55:04;;;;;;;22.05;14.20;;;9.00;72.90;;;;;;5074009;28;20025;-84
2021/04/20 00:57:30;;;;;;;21.77;14.13;;;8.90;73.00;;;;;;5077032;28;20024;-84
2021/04/20 00:59:55;;;;;;;23.02;14.05;;;8.90;73.20;;;;;;5077593;28;20081;-84
2021/04/20 01:02:22;;;;;;;23.17;14.40;;;8.90;73.30;;;;;;5077012;28;20023;-84
2021/04/20 01:04:47;;;;;;;22.98;14.27;;;8.90;73.60;;;;;;5076744;28;20417;-84
2021/04/20 01:07:15;;;;;;;24.20;14.60;;;8.80;73.70;;;;;;5076392;28;20033;-85
2021/04/20 01:09:42;;;;;;;23.08;15.10;;;8.80;73.90;;;;;;5077207;28;20025;-84
2021/04/20 01:12:08;;;;;;;23.08;14.23;;;8.80;74.20;;;;;;5084736;28;20041;-84
2021/04/20 01:14:35;;;;;;;24.15;14.90;;;8.70;74.10;;;;;;5097954;28;20031;-84
2021/04/20 01:17:01;;;;;;;22.25;14.45;;;8.70;74.30;;;;;;5080182;28;20048;-84
2021/04/20 01:19:30;;;;;;;23.10;14.43;;;8.70;74.50;;;;;;5075655;28;20039;-85
2021/04/20 01:21:58;;;;;;;22.58;13.82;;;8.70;74.80;;;;;;5077363;28;20422;-85
2021/04/20 01:24:28;;;;;;;23.98;14.40;;;8.70;74.90;;;;;;5076931;28;20036;-84
2021/04/20 01:26:56;;;;;;;25.08;14.68;;;8.60;75.20;;;;;;5077004;28;20040;-85
2021/04/20 01:29:22;;;;;;;25.02;15.18;;;8.60;75.30;;;;;;5076709;28;20043;-85
2021/04/20 01:31:49;;;;;;;22.58;15.25;;;8.60;75.40;;;;;;5076677;28;20053;-84
2021/04/20 01:34:15;;;;;;;22.85;13.70;;;8.70;75.60;;;;;;5076587;28;20032;-84
2021/04/20 01:36:41;;;;;;;27.10;15.18;;;8.70;75.70;;;;;;5075050;28;20123;-84
2021/04/20 01:39:10;;;;;;;24.85;15.48;;;8.70;75.70;;;;;;5076596;28;20489;-84
2021/04/20 01:41:36;;;;;;;23.77;14.95;;;8.70;75.80;;;;;;5076558;28;20033;-85
2021/04/20 01:44:04;;;;;;;25.45;16.00;;;8.70;75.80;;;;;;5076808;28;20382;-80
2021/04/20 01:46:30;;;;;;;24.52;15.60;;;8.70;75.90;;;;;;5076640;28;20028;-85
2021/04/20 01:48:56;;;;;;;27.80;16.55;;;8.70;76.00;;;;;;5076571;28;20355;-84
2021/04/20 01:51:23;;;;;;;25.98;15.18;;;8.70;76.00;;;;;;5076264;28;20025;-84
2021/04/20 01:53:50;;;;;;;24.35;15.70;;;8.80;76.10;;;;;;5075730;28;20099;-85
2021/04/20 01:56:16;;;;;;;26.10;15.63;;;8.80;76.10;;;;;;5075678;28;20029;-84
2021/04/20 01:58:44;;;;;;;24.73;15.23;;;8.80;76.30;;;;;;5076350;28;20029;-84
2021/04/20 02:01:16;;;;;;;28.08;16.80;;;8.80;76.40;;;;;;5075403;28;20078;-84
2021/04/20 02:03:48;;;;;;;27.98;16.25;;;8.80;76.40;;;;;;5075734;28;20455;-85
2021/04/20 02:06:15;;;;;;;30.05;18.65;;;8.80;76.40;;;;;;5075649;28;20539;-85
2021/04/20 02:08:42;;;;;;;28.38;16.48;;;8.80;76.30;;;;;;5075110;28;20375;-85
2021/04/20 02:11:10;;;;;;;28.77;17.30;;;8.80;76.30;;;;;;5075293;28;20470;-84
2021/04/20 02:13:37;;;;;;;31.83;17.52;;;8.80;76.40;;;;;;5072689;28;20103;-85
2021/04/20 02:16:04;;;;;;;30.77;18.50;;;8.80;76.40;;;;;;5074833;28;20025;-84
2021/04/20 02:18:36;;;;;;;33.38;19.42;;;8.70;76.40;;;;;;5071502;28;20088;-85
2021/04/20 02:21:02;;;;;;;33.58;19.27;;;8.70;76.50;;;;;;5074578;28;20383;-84
2021/04/20 02:23:28;;;;;;;32.15;18.75;;;8.70;76.60;;;;;;5074534;28;20221;-84
2021/04/20 02:26:01;;;;;;;30.88;18.65;;;8.60;76.60;;;;;;5074572;28;20395;-85
2021/04/20 02:28:29;;;;;;;35.25;19.52;;;8.60;76.80;;;;;;5070955;28;20028;-85
2021/04/20 02:30:55;;;;;;;32.60;18.55;;;8.60;76.80;;;;;;5074095;28;20024;-85
2021/04/20 02:33:20;;;;;;;29.88;17.95;;;8.50;76.90;;;;;;5073505;28;20111;-85
2021/04/20 02:35:46;;;;;;;31.75;18.42;;;8.50;77.00;;;;;;5071085;28;20476;-85
2021/04/20 02:38:14;;;;;;;32.63;19.17;;;8.50;77.20;;;;;;5073783;28;20028;-85
2021/04/20 02:40:41;;;;;;;29.35;17.80;;;8.40;77.30;;;;;;5073991;28;20024;-84
2021/04/20 02:43:07;;;;;;;32.88;17.75;;;8.40;77.30;;;;;;5071416;28;20112;-85
2021/04/20 02:45:33;;;;;;;29.67;17.17;;;8.40;77.40;;;;;;5073129;28;20390;-85
2021/04/20 02:47:59;;;;;;;30.85;18.55;;;8.40;77.50;;;;;;5074345;28;20131;-84
2021/04/20 02:50:28;;;;;;;33.60;18.20;;;8.40;77.60;;;;;;5073786;28;20028;-85
2021/04/20 02:52:56;;;;;;;30.88;18.38;;;8.40;77.80;;;;;;5074281;28;20025;-85
2021/04/20 02:55:23;;;;;;;28.45;17.48;;;8.40;77.80;;;;;;5074106;28;20047;-84
2021/04/20 02:57:55;;;;;;;32.63;18.30;;;8.40;77.90;;;;;;5073585;28;20024;-83
2021/04/20 03:00:22;;;;;;;32.85;17.05;;;8.40;78.00;;;;;;5071937;28;20036;-85
2021/04/20 03:02:54;;;;;;;31.88;18.50;;;8.40;78.10;;;;;;5071362;28;20013;-85
2021/04/20 03:05:21;;;;;;;34.33;18.13;;;8.40;78.10;;;;;;5073096;28;20052;-84
2021/04/20 03:07:48;;;;;;;31.58;17.40;;;8.40;78.10;;;;;;5072691;28;20036;-85
2021/04/20 03:10:16;;;;;;;34.13;19.20;;;8.40;78.10;;;;;;5071716;28;20037;-86
2021/04/20 03:12:43;;;;;;;29.55;17.42;;;8.40;78.10;;;;;;5073284;28;20032;-85
2021/04/20 03:15:11;;;;;;;31.33;17.50;;;8.40;78.20;;;;;;5073829;28;20170;-85
2021/04/20 03:17:39;;;;;;;30.17;17.70;;;8.40;78.50;;;;;;5074128;28;20032;-86
2021/04/20 03:20:07;;;;;;;26.85;16.60;;;8.50;78.70;;;;;;5073815;28;20070;-85
2021/04/20 03:22:33;;;;;;;29.40;17.13;;;8.60;78.90;;;;;;5074196;28;20194;-85
2021/04/20 03:25:05;;;;;;;26.83;16.52;;;8.70;79.00;;;;;;5074145;28;20472;-85
2021/04/20 03:27:32;;;;;;;28.67;15.80;;;8.80;79.00;;;;;;5073628;28;20037;-85
2021/04/20 03:29:58;;;;;;;28.05;16.02;;;8.90;78.80;;;;;;5074636;28;20031;-85
2021/04/20 03:32:25;;;;;;;25.38;15.48;;;9.00;78.60;;;;;;5074104;28;20040;-85
2021/04/20 03:34:57;;;;;;;28.77;16.58;;;9.20;78.50;;;;;;5074411;28;20029;-85
2021/04/20 03:37:55;;;;;;;26.15;15.95;;;9.30;78.20;;;;;;5073308;28;20036;-85
2021/04/20 03:40:23;;;;;;;25.92;16.05;;;9.40;77.70;;;;;;5072941;28;20451;-86
2021/04/20 03:42:58;;;;;;;30.65;19.92;;;9.60;77.40;;;;;;5073886;28;20111;-86
2021/04/20 03:45:31;;;;;;;28.17;17.98;;;9.70;77.20;;;;;;5074815;28;20078;-86
2021/04/20 03:48:10;;;;;;;27.67;16.42;;;9.80;76.90;;;;;;5074152;28;20389;-86
2021/04/20 03:50:40;;;;;;;27.13;16.02;;;9.90;76.80;;;;;;5093627;28;20071;-84
2021/04/20 03:53:08;;;;;;;25.10;16.35;;;9.90;76.40;;;;;;5089086;28;20024;-85
2021/04/20 03:55:37;;;;;;;26.55;16.27;;;10.00;76.00;;;;;;5078857;28;20035;-85
2021/04/20 03:58:05;;;;;;;27.08;16.65;;;10.00;75.70;;;;;;5073569;28;20028;-86
2021/04/20 04:00:32;;;;;;;26.27;16.40;;;10.10;75.60;;;;;;5073579;28;20486;-86
2021/04/20 04:02:59;;;;;;;30.83;17.90;;;10.10;75.40;;;;;;5073960;28;20028;-85
2021/04/20 04:05:27;;;;;;;28.52;17.05;;;10.20;75.30;;;;;;5073130;28;20103;-86
2021/04/20 04:07:58;;;;;;;31.40;16.98;;;10.20;75.10;;;;;;5073315;28;20041;-85
2021/04/20 04:10:28;;;;;;;31.45;18.20;;;10.30;74.80;;;;;;5074229;28;20082;-85
2021/04/20 04:12:57;;;;;;;27.75;17.83;;;10.30;74.60;;;;;;5076033;28;20051;-85
2021/04/20 04:15:24;;;;;;;32.50;18.95;;;10.30;74.60;;;;;;5073864;28;20112;-85
2021/04/20 04:17:52;;;;;;;28.85;17.98;;;10.40;74.40;;;;;;5073302;28;20016;-86
2021/04/20 04:20:19;;;;;;;30.52;17.85;;;10.50;74.20;;;;;;5072823;28;20040;-86
2021/04/20 04:22:49;;;;;;;26.77;17.92;;;10.70;73.80;;;;;;5073595;28;20023;-85
2021/04/20 04:25:20;;;;;;;28.73;17.33;;;10.70;73.30;;;;;;5073163;28;20394;-85
2021/04/20 04:27:48;;;;;;;24.95;17.08;;;10.80;73.20;;;;;;5070702;28;20036;-86
2021/04/20 04:30:15;;;;;;;29.52;17.60;;;10.90;72.80;;;;;;5073983;28;20035;-85
2021/04/20 04:32:43;;;;;;;29.50;18.67;;;11.00;72.60;;;;;;5078136;28;20031;-85
2021/04/20 04:35:10;;;;;;;26.58;17.40;;;11.10;72.30;;;;;;5077335;28;20085;-85
2021/04/20 04:37:37;;;;;;;25.00;16.13;;;11.20;71.80;;;;;;5077492;28;20044;-85
2021/04/20 04:40:08;;;;;;;24.58;16.50;;;11.20;71.40;;;;;;5077038;28;20422;-86
2021/04/20 04:42:34;;;;;;;26.17;16.65;;;11.30;71.10;;;;;;5077046;28;20028;-85
2021/04/20 04:45:02;;;;;;;26.65;16.83;;;11.40;70.90;;;;;;5077112;28;20039;-86
2021/04/20 04:47:29;;;;;;;24.35;15.98;;;11.40;70.60;;;;;;5075708;28;20580;-85
2021/04/20 04:49:59;;;;;;;25.00;16.52;;;11.50;70.30;;;;;;5076942;28;20023;-83
2021/04/20 04:52:26;;;;;;;24.02;15.70;;;11.60;70.00;;;;;;5077205;28;20413;-85
2021/04/20 04:54:51;;;;;;;23.73;15.77;;;11.70;69.90;;;;;;5076320;28;20025;-85
2021/04/20 04:57:19;;;;;;;24.65;15.52;;;11.70;69.60;;;;;;5076542;28;20034;-87
2021/04/20 04:59:46;;;;;;;21.85;15.30;;;11.80;69.30;;;;;;5077058;28;20044;-86
2021/04/20 05:02:12;;;;;;;24.85;15.40;;;11.90;69.00;;;;;;5075545;28;20036;-82
2021/04/20 05:04:38;;;;;;;25.40;16.13;;;12.00;68.80;;;;;;5075352;28;20111;-86
2021/04/20 05:07:04;;;;;;;25.02;15.50;;;12.00;68.50;;;;;;5076192;28;20127;-88
2021/04/20 05:09:29;;;;;;;26.00;16.83;;;12.10;68.20;;;;;;5076174;28;20021;-86
2021/04/20 05:11:55;;;;;;;25.30;16.38;;;12.20;68.10;;;;;;5076567;28;20106;-87
2021/04/20 05:14:22;;;;;;;22.00;15.05;;;12.30;67.80;;;;;;5076469;28;20476;-86
2021/04/20 05:16:50;;;;;;;21.77;14.85;;;12.40;67.50;;;;;;5076647;28;20048;-82
2021/04/20 05:19:20;;;;;;;24.92;15.45;;;12.50;67.30;;;;;;5077153;28;20026;-87
2021/04/20 05:21:49;;;;;;;23.13;15.55;;;12.60;66.90;;;;;;5077022;28;20106;-88
2021/04/20 05:24:19;;;;;;;20.17;14.30;;;12.70;66.50;;;;;;5074931;28;20028;-86
2021/04/20 05:26:45;;;;;;;24.58;15.60;;;12.70;66.10;;;;;;5075573;28;20493;-87
2021/04/20 05:29:11;;;;;;;23.08;15.60;;;12.80;66.00;;;;;;5074506;28;20029;-87
2021/04/20 05:31:36;;;;;;;20.55;14.85;;;12.90;65.70;;;;;;5075634;28;20452;-85
2021/04/20 05:34:05;;;;;;;22.48;15.23;;;13.10;65.40;;;;;;5075467;28;20016;-86
2021/04/20 05:36:31;;;;;;;23.40;14.63;;;13.20;65.00;;;;;;5075742;28;20062;-86
2021/04/20 05:38:59;;;;;;;21.63;14.50;;;13.30;64.50;;;;;;5074403;28;20052;-85
2021/04/20 05:41:29;;;;;;;19.05;14.07;;;13.40;63.90;;;;;;5075003;28;20021;-85
2021/04/20 05:43:57;;;;;;;19.67;13.50;;;13.40;63.60;;;;;;5074974;28;20028;-86
2021/04/20 05:46:24;;;;;;;17.83;13.25;;;13.40;63.10;;;;;;5074814;28;20536;-86
2021/04/20 05:48:52;;;;;;;20.42;13.70;;;13.40;62.80;;;;;;5074619;28;20016;-85
2021/04/20 05:51:20;;;;;;;21.40;14.45;;;13.30;62.70;;;;;;5072049;28;20420;-86
2021/04/20 05:53:48;;;;;;;22.58;14.10;;;13.20;62.70;;;;;;5074071;28;20470;-89
2021/04/20 05:56:14;;;;;;;19.60;14.20;;;13.20;62.70;;;;;;5074869;28;20052;-85
2021/04/20 05:58:41;;;;;;;20.70;14.40;;;13.10;62.70;;;;;;5075258;28;20056;-86
2021/04/20 06:01:07;;;;;;;20.20;13.25;;;13.00;62.70;;;;;;5075083;28;20382;-86
2021/04/20 06:03:38;;;;;;;19.65;13.30;;;13.00;62.90;;;;;;5075840;28;20032;-86
2021/04/20 06:06:06;;;;;;;24.88;14.13;;;12.90;62.90;;;;;;5075174;28;20174;-87
2021/04/20 06:08:34;;;;;;;22.60;14.02;;;12.90;63.00;;;;;;5074602;28;20056;-86
2021/04/20 06:11:02;;;;;;;20.10;14.23;;;12.90;63.10;;;;;;5075910;28;20073;-86
2021/04/20 06:13:28;;;;;;;18.70;13.07;;;12.90;63.10;;;;;;5075978;28;20025;-86
2021/04/20 06:15:54;;;;;;;21.85;14.18;;;12.90;63.20;;;;;;5075919;28;20029;-86
2021/04/20 06:18:22;;;;;;;19.08;13.32;;;12.90;63.20;;;;;;5074523;28;20028;-89
2021/04/20 06:20:49;;;;;;;21.40;14.10;;;13.00;63.30;;;;;;5058242;28;20049;-88
2021/04/20 06:23:16;;;;;;;18.25;12.82;;;13.10;63.20;;;;;;5075643;28;20120;-83
2021/04/20 06:25:44;;;;;;;19.48;13.65;;;13.20;63.00;;;;;;5091124;28;20027;-86
2021/04/20 06:28:13;;;;;;;18.85;13.93;;;13.30;62.80;;;;;;5080474;28;20473;-88
2021/04/20 06:30:40;;;;;;;23.08;15.40;;;13.40;62.70;;;;;;5074775;28;20081;-85
2021/04/20 06:33:07;;;;;;;24.48;15.38;;;13.40;62.70;;;;;;5073947;28;20020;-88
2021/04/20 06:35:34;;;;;;;29.15;17.75;;;13.60;62.70;;;;;;5074554;28;20031;-86
2021/04/20 06:38:00;;;;;;;22.40;14.70;;;13.80;62.50;;;;;;5074989;28;20024;-86
2021/04/20 06:40:39;;;;;;;21.00;15.40;;;13.90;62.10;;;;;;5074532;28;20028;-86
2021/04/20 06:43:07;;;;;;;22.92;15.15;;;14.00;61.50;;;;;;5074582;28;20029;-85
2021/04/20 06:46:14;;;;;;;23.50;14.23;;;14.20;61.30;;;;;;5073656;28;20480;-87
2021/04/20 06:48:55;;;;;;;17.85;13.20;;;14.20;61.00;;;;;;5060882;28;20040;-87
2021/04/20 06:51:28;;;;;;;19.55;14.20;;;14.40;61.00;;;;;;5072362;28;20538;-85
2021/04/20 06:54:13;;;;;;;18.67;13.60;;;14.60;60.70;;;;;;5071369;28;20092;-86
2021/04/20 06:57:12;;;;;;;18.90;13.48;;;14.90;60.40;;;;;;5072138;28;20020;-87
2021/04/20 07:00:00;;;;;;;16.88;13.70;;;15.10;59.80;;;;;;5071527;28;20082;-86
2021/04/20 07:02:28;;;;;;;17.50;13.05;;;15.40;59.50;;;;;;5072574;28;20021;-85
2021/04/20 07:04:57;;;;;;;19.35;12.95;;;15.60;58.80;;;;;;5072827;28;20390;-88
2021/04/20 07:07:26;;;;;;;17.23;12.20;;;15.80;58.40;;;;;;5072705;28;20094;-84
2021/04/20 07:10:13;;;;;;;17.23;12.45;;;15.90;57.90;;;;;;5073222;28;20052;-85
2021/04/20 07:12:43;;;;;;;16.85;12.32;;;16.10;57.40;;;;;;5072097;28;20099;-87
2021/04/20 07:15:12;;;;;;;16.15;12.40;;;16.30;57.20;;;;;;5070055;28;20079;-87
2021/04/20 07:18:03;;;;;;;17.55;11.93;;;16.40;57.30;;;;;;5073051;28;20024;-86
2021/04/20 07:20:47;;;;;;;19.27;13.43;;;16.60;56.40;;;;;;5070032;28;20040;-86
2021/04/20 07:23:54;;;;;;;18.70;12.52;;;16.70;56.10;;;;;;5061558;28;20024;-86
2021/04/20 07:26:27;;;;;;;16.88;12.00;;;16.80;55.70;;;;;;5069971;28;20474;-88
2021/04/20 07:28:58;;;;;;;15.73;12.07;;;16.90;55.30;;;;;;5072841;28;20373;-86
2021/04/20 07:32:01;;;;;;;15.02;11.40;;;16.90;55.00;;;;;;5070583;28;20447;-88
2021/04/20 07:34:34;;;;;;;16.98;12.02;;;16.90;54.70;;;;;;5071250;28;20086;-88
2021/04/20 07:37:31;;;;;;;15.07;11.65;;;16.90;55.00;;;;;;5068441;28;20378;-86
2021/04/20 07:40:09;;;;;;;14.43;11.68;;;16.90;54.30;;;;;;5072196;28;20032;-86
2021/04/20 07:43:16;;;;;;;13.73;10.88;;;16.90;54.10;;;;;;5072220;28;20025;-84
2021/04/20 07:46:17;;;;;;;13.45;10.68;;;16.90;54.00;;;;;;5072270;28;20031;-86
2021/04/20 07:48:49;;;;;;;14.63;11.13;;;17.10;53.80;;;;;;5074308;28;20039;-88
2021/04/20 07:51:38;;;;;;;13.90;9.90;;;17.30;53.30;;;;;;5075103;28;20033;-86
2021/04/20 07:54:09;;;;;;;11.95;9.45;;;17.40;53.00;;;;;;5073676;28;20032;-87
2021/04/20 07:56:39;;;;;;;11.05;9.13;;;17.60;52.90;;;;;;5073054;28;20032;-87
2021/04/20 07:59:44;;;;;;;12.07;9.65;;;17.90;52.20;;;;;;5073711;28;20032;-86
2021/04/20 08:02:30;;;;;;;9.73;8.40;;;18.20;51.50;;;;;;5068007;28;20029;-87
2021/04/20 08:05:22;;;;;;;10.23;8.32;;;18.50;50.90;;;;;;5074043;28;20258;-87
2021/04/20 08:07:54;;;;;;;9.05;7.82;;;18.70;50.20;;;;;;5057756;28;20045;-88
2021/04/20 08:10:24;;;;;;;9.95;7.97;;;19.00;49.80;;;;;;5057554;28;20387;-87
2021/04/20 08:13:13;;;;;;;11.43;7.43;;;19.10;49.30;;;;;;5061547;28;20025;-87
2021/04/20 08:15:56;;;;;;;9.57;8.52;;;19.30;48.50;;;;;;5061922;28;20026;-86
2021/04/20 08:18:34;;;;;;;9.35;6.70;;;19.40;48.00;;;;;;5077595;28;20519;-87
2021/04/20 08:21:02;;;;;;;8.50;7.57;;;19.60;47.70;;;;;;5077876;28;20044;-87
2021/04/20 08:23:29;;;;;;;10.35;7.65;;;19.80;48.10;;;;;;5076573;28;20032;-87
2021/04/20 08:26:11;;;;;;;8.65;7.32;;;20.30;47.60;;;;;;5077766;28;20032;-87
2021/04/20 08:28:48;;;;;;;8.27;6.78;;;20.70;45.70;;;;;;5077329;28;20062;-86
2021/04/20 08:31:30;;;;;;;11.32;6.55;;;20.80;45.10;;;;;;5076163;28;20043;-88
2021/04/20 08:34:05;;;;;;;9.13;6.60;;;20.70;44.50;;;;;;5074576;28;20032;-86
2021/04/20 08:36:52;;;;;;;7.18;6.47;;;20.70;44.70;;;;;;5071767;28;20020;-88
2021/04/20 08:39:22;;;;;;;7.03;6.10;;;20.80;44.00;;;;;;5074679;28;20082;-87
2021/04/20 08:42:14;;;;;;;6.90;6.05;;;21.10;43.60;;;;;;5073380;28;20393;-86
2021/04/20 08:45:06;;;;;;;6.93;5.72;;;21.30;42.90;;;;;;5074880;28;20044;-85
2021/04/20 08:48:02;;;;;;;7.70;6.32;;;21.50;42.70;;;;;;5056892;28;20032;-85
2021/04/20 08:50:32;;;;;;;6.70;6.00;;;21.80;42.30;;;;;;5072441;28;20064;-87
2021/04/20 08:53:26;;;;;;;5.55;5.00;;;22.10;41.90;;;;;;5076107;28;20028;-86
2021/04/20 08:56:30;;;;;;;5.78;5.07;;;22.30;40.90;;;;;;5076041;28;20131;-87
2021/04/20 08:59:17;;;;;;;7.73;4.90;;;22.90;40.80;;;;;;5060636;28;20059;-87
2021/04/20 09:01:55;;;;;;;5.80;5.20;;;23.20;40.30;;;;;;5064424;28;20088;-85
2021/04/20 09:04:35;;;;;;;6.30;4.90;;;23.80;39.50;;;;;;5060198;28;20037;-86
2021/04/20 09:07:15;;;;;;;5.60;5.10;;;24.40;38.60;;;;;;5073294;28;20044;-84
2021/04/20 09:09:46;;;;;;;5.45;4.90;;;24.80;37.40;;;;;;5073915;28;20016;-89
2021/04/20 09:12:14;;;;;;;4.65;4.25;;;24.80;36.70;;;;;;5074930;28;20036;-87
2021/04/20 09:14:41;;;;;;;4.45;4.07;;;24.50;36.50;;;;;;5076177;28;20036;-89
2021/04/20 09:17:19;;;;;;;5.88;5.28;;;24.10;36.10;;;;;;5074983;28;20393;-88
2021/04/20 09:19:56;;;;;;;4.63;4.22;;;23.80;36.10;;;;;;5075993;28;20048;-87
2021/04/20 09:22:26;;;;;;;9.35;4.68;;;23.90;36.20;;;;;;5077522;28;20051;-87
2021/04/20 09:24:57;;;;;;;6.43;4.00;;;24.10;36.30;;;;;;5075189;28;20028;-88
2021/04/20 09:27:52;;;;;;;4.60;4.20;;;24.20;36.00;;;;;;5067211;28;20118;-81
2021/04/20 09:30:22;;;;;;;5.53;4.13;;;24.50;35.40;;;;;;5074400;28;20032;-81
2021/04/20 09:33:00;;;;;;;8.93;4.00;;;24.80;35.60;;;;;;5075653;28;20120;-80
2021/04/20 09:35:27;;;;;;;4.35;3.95;;;24.90;35.10;;;;;;5068580;28;20323;-81
2021/04/20 09:37:54;;;;;;;8.95;4.53;;;24.70;35.30;;;;;;5075419;28;20024;-80
2021/04/20 09:40:22;;;;;;;6.53;4.45;;;24.70;35.50;;;;;;5075210;28;20378;-81
2021/04/20 09:42:56;;;;;;;7.38;4.88;;;25.00;35.50;;;;;;5073273;28;20021;-81
2021/04/20 09:45:38;;;;;;;5.20;4.70;;;25.30;35.10;;;;;;5075197;28;20028;-82
2021/04/20 09:48:44;;;;;;;5.68;5.15;;;25.40;35.30;;;;;;5074990;28;20146;-82
2021/04/20 09:51:16;;;;;;;5.63;4.65;;;26.10;35.30;;;;;;5074691;28;20024;-81
2021/04/20 09:54:06;;;;;;;8.15;4.95;;;27.60;35.40;;;;;;5075039;28;20105;-82
2021/04/20 09:56:42;;;;;;;6.78;4.97;;;28.80;34.00;;;;;;5074725;28;20035;-81
2021/04/20 09:59:22;;;;;;;6.53;5.13;;;29.40;33.10;;;;;;5073896;28;20028;-81
2021/04/20 10:02:06;;;;;;;5.10;4.65;;;30.10;32.70;;;;;;5075060;28;20106;-81
2021/04/20 10:04:41;;;;;;;7.30;5.13;;;31.00;32.20;;;;;;5074045;28;20025;-81
2021/04/20 10:07:39;;;;;;;5.28;4.70;;;31.60;31.60;;;;;;5073312;28;20402;-81
2021/04/20 10:10:28;;;;;;;5.97;4.93;;;32.20;31.10;;;;;;5072925;28;20059;-81
2021/04/20 10:13:18;;;;;;;4.63;4.10;;;32.80;30.60;;;;;;5074066;28;20056;-81
2021/04/20 10:15:59;;;;;;;4.95;4.45;;;33.30;30.00;;;;;;5073878;28;20467;-80
2021/04/20 10:19:00;;;;;;;4.55;4.15;;;33.10;29.30;;;;;;5067059;28;20044;-83
2021/04/20 10:21:39;;;;;;;6.70;4.10;;;32.90;29.50;;;;;;5072555;28;20119;-81
2021/04/20 10:24:32;;;;;;;4.15;3.85;;;33.50;29.60;;;;;;5071722;28;20063;-80
2021/04/20 10:27:18;;;;;;;8.00;4.20;;;34.00;29.30;;;;;;5069760;28;20041;-81
2021/04/20 10:29:51;;;;;;;4.68;4.28;;;33.90;28.90;;;;;;5071343;28;20269;-81
2021/04/20 10:32:20;;;;;;;;;;;33.90;28.90;;;;;;5073861;28;20055;-80
2021/04/20 10:34:49;;;;;;;5.20;3.78;;;33.70;29.80;;;;;;5074366;28;19994;-81
2021/04/20 10:37:16;;;;;;;4.40;4.00;;;33.30;28.70;;;;;;5074230;28;20037;-81
2021/04/20 10:39:52;;;;;;;5.20;4.43;;;32.50;28.70;;;;;;5074024;28;20494;-81
2021/04/20 10:42:26;;;;;;;7.30;4.03;;;32.50;29.00;;;;;;5074045;28;20021;-81
2021/04/20 10:44:54;;;;;;;3.58;3.33;;;33.20;28.90;;;;;;5074779;28;20359;-82
2021/04/20 10:47:21;;;;;;;4.25;3.67;;;34.00;28.70;;;;;;5074100;28;20066;-81
2021/04/20 10:49:54;;;;;;;3.83;3.53;;;34.70;28.60;;;;;;5073474;28;20378;-81
2021/04/20 10:52:22;;;;;;;4.18;3.83;;;35.40;28.10;;;;;;5073271;28;20021;-82
2021/04/20 10:54:49;;;;;;;6.30;3.90;;;35.70;27.80;;;;;;5073255;28;20466;-81
2021/04/20 10:57:15;;;;;;;5.60;4.32;;;35.50;27.50;;;;;;5073127;28;20032;-81
2021/04/20 10:59:50;;;;;;;4.47;3.97;;;34.70;27.50;;;;;;5072573;28;20025;-83
2021/04/20 11:02:22;;;;;;;5.95;3.75;;;34.60;27.80;;;;;;5072504;28;20363;-82
2021/04/20 11:04:52;;;;;;;5.38;4.85;;;34.30;27.60;;;;;;5070588;28;20487;-81
2021/04/20 11:07:27;;;;;;;5.90;5.38;;;34.30;27.90;;;;;;5072543;28;20123;-82
2021/04/20 11:09:57;;;;;;;7.10;5.57;;;33.80;28.00;;;;;;5071164;28;20025;-82
2021/04/20 11:12:24;;;;;;;6.18;5.57;;;32.80;28.10;;;;;;5072552;28;20029;-81
2021/04/20 11:14:52;;;;;;;8.77;5.80;;;31.60;28.90;;;;;;5073013;28;20047;-81
2021/04/20 11:17:26;;;;;;;6.78;6.07;;;30.40;28.90;;;;;;5072917;28;20086;-80
2021/04/20 11:23:21;;;;;;;7.57;6.00;;;28.40;30.20;;;;;;5053823;28;20059;-80
2021/04/20 11:25:51;;;;;;;10.20;7.13;;;27.50;31.20;;;;;;5053659;28;20219;-82
2021/04/20 11:28:47;;;;;;;7.40;6.70;;;26.90;31.70;;;;;;5053573;28;20037;-82
2021/04/20 11:31:18;;;;;;;7.47;6.55;;;26.20;32.20;;;;;;5054071;28;20029;-81
2021/04/20 11:33:54;;;;;;;7.15;6.43;;;25.60;32.90;;;;;;5055557;28;20372;-80
2021/04/20 11:36:24;;;;;;;7.90;6.45;;;25.00;34.30;;;;;;5067541;28;20029;-81
2021/04/20 11:38:57;;;;;;;8.52;6.97;;;24.40;34.20;;;;;;5054197;28;20052;-80
2021/04/20 11:42:09;;;;;;;7.63;6.05;;;23.90;34.90;;;;;;5055895;28;20024;-81
2021/04/20 11:44:47;;;;;;;7.60;6.85;;;23.50;35.30;;;;;;5049826;28;20159;-81
2021/04/20 11:47:14;;;;;;;7.40;6.70;;;23.20;35.70;;;;;;5070720;28;20126;-82
2021/04/20 11:49:52;;;;;;;9.48;8.05;;;23.00;36.20;;;;;;5071186;28;20055;-81
2021/04/20 11:52:28;;;;;;;7.40;6.70;;;23.10;36.70;;;;;;5071064;28;20379;-81
2021/04/20 11:55:04;;;;;;;7.28;6.32;;;24.10;36.80;;;;;;5070709;28;20519;-81
2021/04/20 11:57:30;;;;;;;11.23;6.65;;;25.90;36.00;;;;;;5070740;28;20028;-82
2021/04/20 11:59:56;;;;;;;7.07;6.38;;;27.50;34.80;;;;;;5071985;28;20462;-81
2021/04/20 12:02:30;;;;;;;10.35;7.78;;;28.80;33.60;;;;;;5072166;28;20021;-81
2021/04/20 12:05:06;;;;;;;8.75;7.78;;;29.70;32.70;;;;;;5072401;28;20016;-82
2021/04/20 12:07:35;;;;;;;10.18;7.88;;;30.50;32.10;;;;;;5052872;28;20037;-81
2021/04/20 12:10:04;;;;;;;9.30;8.32;;;31.00;31.70;;;;;;5053077;28;20036;-80
2021/04/20 12:12:36;;;;;;;11.13;7.30;;;31.40;31.20;;;;;;5053511;28;20098;-80
2021/04/20 12:15:06;;;;;;;8.73;7.35;;;31.80;30.80;;;;;;5053040;28;20055;-81
2021/04/20 12:17:37;;;;;;;8.77;7.32;;;32.30;30.60;;;;;;5072222;28;20443;-81
2021/04/20 12:20:09;;;;;;;7.93;7.13;;;33.00;30.20;;;;;;5072896;28;20035;-82
2021/04/20 12:22:35;;;;;;;8.13;7.40;;;33.30;29.90;;;;;;5072599;28;20049;-82
2021/04/20 12:25:03;;;;;;;8.20;6.90;;;33.60;29.70;;;;;;5048889;28;20024;-81
2021/04/20 12:27:30;;;;;;;6.90;6.20;;;33.80;29.40;;;;;;5069211;28;20083;-81
2021/04/20 12:29:58;;;;;;;6.70;6.10;;;33.90;29.10;;;;;;5072098;28;20032;-82
2021/04/20 12:32:25;;;;;;;7.75;6.95;;;33.60;29.10;;;;;;5071963;28;20044;-82
2021/04/20 12:34:56;;;;;;;8.00;7.20;;;33.00;29.60;;;;;;5071573;28;20390;-81
2021/04/20 12:37:24;;;;;;;7.82;7.05;;;32.90;29.30;;;;;;5069778;28;20116;-81
2021/04/20 12:39:57;;;;;;;7.63;6.82;;;32.50;29.30;;;;;;5072050;28;20443;-81
2021/04/20 12:42:28;;;;;;;7.82;6.90;;;31.90;29.40;;;;;;5069696;28;20025;-80
2021/04/20 12:44:57;;;;;;;8.30;6.70;;;31.20;29.70;;;;;;5070196;28;20047;-82
2021/04/20 12:47:31;;;;;;;7.03;6.32;;;31.20;29.80;;;;;;5071816;28;20060;-81
2021/04/20 12:50:00;;;;;;;8.20;7.43;;;31.40;29.80;;;;;;5069894;28;20458;-80
2021/04/20 12:52:27;;;;;;;8.85;7.97;;;31.50;29.60;;;;;;5074015;28;20035;-81
2021/04/20 12:54:58;;;;;;;7.90;7.20;;;31.00;29.50;;;;;;5074973;28;20039;-82
2021/04/20 12:57:31;;;;;;;7.55;6.85;;;30.30;29.70;;;;;;5075420;28;20036;-82
2021/04/20 13:00:00;;;;;;;8.15;7.28;;;29.90;30.00;;;;;;5073712;28;20027;-82
2021/04/20 13:02:27;;;;;;;8.00;7.20;;;30.20;30.30;;;;;;5073323;28;20051;-82
2021/04/20 13:05:01;;;;;;;7.90;7.05;;;30.80;30.30;;;;;;5074963;28;20016;-81
2021/04/20 13:07:28;;;;;;;9.55;7.57;;;31.40;30.00;;;;;;5072698;28;20398;-82